sensor_id;sensor_type;location;lat;lon;timestamp;temperature;humidity
21199;DHT22;10757;51.038;3.712;2023-02-28T00:00:39;3.40;99.90
21199;DHT22;10757;51.038;3.712;2023-02-28T00:03:05;3.40;99.90
21199;DHT22;10757;51.038;3.712;2023-02-28T00:05:31;3.40;99.90
21199;DHT22;10757;51.038;3.712;2023-02-28T00:07:57;3.40;99.90
21199;DHT22;10757;51.038;3.712;2023-02-28T00:10:25;3.30;99.90
21199;DHT22;10757;51.038;3.712;2023-02-28T00:12:55;3.20;99.90
21199;DHT22;10757;51.038;3.712;2023-02-28T00:15:23;3.10;99.90
21199;DHT22;10757;51.038;3.712;2023-02-28T00:17:49;3.10;99.90
21199;DHT22;10757;51.038;3.712;2023-02-28T00:20:15;3.20;99.90
21199;DHT22;10757;51.038;3.712;2023-02-28T00:22:44;3.30;99.90
21199;DHT22;10757;51.038;3.712;2023-02-28T00:25:12;3.20;99.90
21199;DHT22;10757;51.038;3.712;2023-02-28T00:27:39;3.20;99.90
21199;DHT22;10757;51.038;3.712;2023-02-28T00:30:07;3.30;99.90
21199;DHT22;10757;51.038;3.712;2023-02-28T00:32:33;3.20;99.90
21199;DHT22;10757;51.038;3.712;2023-02-28T00:35:00;3.20;99.90
21199;DHT22;10757;51.038;3.712;2023-02-28T00:37:26;3.20;99.90
21199;DHT22;10757;51.038;3.712;2023-02-28T00:39:51;3.10;99.90
21199;DHT22;10757;51.038;3.712;2023-02-28T00:42:17;3.10;99.90
21199;DHT22;10757;51.038;3.712;2023-02-28T00:44:43;3.20;99.90
21199;DHT22;10757;51.038;3.712;2023-02-28T00:47:09;3.20;99.90
21199;DHT22;10757;51.038;3.712;2023-02-28T00:49:37;3.10;99.90
21199;DHT22;10757;51.038;3.712;2023-02-28T00:52:03;3.10;99.90
21199;DHT22;10757;51.038;3.712;2023-02-28T00:54:28;3.10;99.90
21199;DHT22;10757;51.038;3.712;2023-02-28T00:56:54;3.00;99.90
21199;DHT22;10757;51.038;3.712;2023-02-28T00:59:20;3.00;99.90
21199;DHT22;10757;51.038;3.712;2023-02-28T01:01:46;3.00;99.90
21199;DHT22;10757;51.038;3.712;2023-02-28T01:04:12;3.10;99.90
21199;DHT22;10757;51.038;3.712;2023-02-28T01:06:38;3.00;99.90
21199;DHT22;10757;51.038;3.712;2023-02-28T01:09:06;3.00;99.90
21199;DHT22;10757;51.038;3.712;2023-02-28T01:11:32;3.10;99.90
21199;DHT22;10757;51.038;3.712;2023-02-28T01:13:59;3.10;99.90
21199;DHT22;10757;51.038;3.712;2023-02-28T01:16:25;3.10;99.90
21199;DHT22;10757;51.038;3.712;2023-02-28T01:18:51;3.10;99.90
21199;DHT22;10757;51.038;3.712;2023-02-28T01:21:18;3.00;99.90
21199;DHT22;10757;51.038;3.712;2023-02-28T01:23:44;3.20;99.90
21199;DHT22;10757;51.038;3.712;2023-02-28T01:28:40;3.20;99.90
21199;DHT22;10757;51.038;3.712;2023-02-28T01:31:08;3.10;99.90
21199;DHT22;10757;51.038;3.712;2023-02-28T01:33:34;3.10;99.90
21199;DHT22;10757;51.038;3.712;2023-02-28T01:36:02;3.30;99.90
21199;DHT22;10757;51.038;3.712;2023-02-28T01:38:28;3.20;99.90
21199;DHT22;10757;51.038;3.712;2023-02-28T01:40:54;3.00;99.90
21199;DHT22;10757;51.038;3.712;2023-02-28T01:43:22;2.90;99.90
21199;DHT22;10757;51.038;3.712;2023-02-28T01:45:50;2.90;99.90
21199;DHT22;10757;51.038;3.712;2023-02-28T01:48:15;2.80;99.90
21199;DHT22;10757;51.038;3.712;2023-02-28T01:50:44;2.80;99.90
21199;DHT22;10757;51.038;3.712;2023-02-28T01:53:21;3.00;99.90
21199;DHT22;10757;51.038;3.712;2023-02-28T01:55:50;3.00;99.90
21199;DHT22;10757;51.038;3.712;2023-02-28T01:58:17;2.90;99.90
21199;DHT22;10757;51.038;3.712;2023-02-28T02:00:43;2.80;99.90
21199;DHT22;10757;51.038;3.712;2023-02-28T02:03:12;2.80;99.90
21199;DHT22;10757;51.038;3.712;2023-02-28T02:05:40;2.90;99.90
21199;DHT22;10757;51.038;3.712;2023-02-28T02:08:11;2.90;99.90
21199;DHT22;10757;51.038;3.712;2023-02-28T02:11:07;2.90;99.90
21199;DHT22;10757;51.038;3.712;2023-02-28T02:39:17;3.00;99.90
21199;DHT22;10757;51.038;3.712;2023-02-28T02:41:52;2.90;99.90
21199;DHT22;10757;51.038;3.712;2023-02-28T02:44:23;2.70;99.90
21199;DHT22;10757;51.038;3.712;2023-02-28T02:46:53;2.60;99.90
21199;DHT22;10757;51.038;3.712;2023-02-28T02:49:32;2.60;99.90
21199;DHT22;10757;51.038;3.712;2023-02-28T02:52:06;2.80;99.90
21199;DHT22;10757;51.038;3.712;2023-02-28T02:54:41;3.10;99.90
21199;DHT22;10757;51.038;3.712;2023-02-28T02:57:15;3.30;99.90
21199;DHT22;10757;51.038;3.712;2023-02-28T02:59:43;3.10;99.90
21199;DHT22;10757;51.038;3.712;2023-02-28T03:02:13;2.90;99.90
21199;DHT22;10757;51.038;3.712;2023-02-28T03:04:43;2.80;99.90
21199;DHT22;10757;51.038;3.712;2023-02-28T03:07:10;2.80;99.90
21199;DHT22;10757;51.038;3.712;2023-02-28T03:09:36;2.70;99.90
21199;DHT22;10757;51.038;3.712;2023-02-28T03:12:02;2.60;99.90
21199;DHT22;10757;51.038;3.712;2023-02-28T03:19:47;2.50;99.90
21199;DHT22;10757;51.038;3.712;2023-02-28T03:22:36;2.40;99.90
21199;DHT22;10757;51.038;3.712;2023-02-28T03:28:02;2.50;99.90
21199;DHT22;10757;51.038;3.712;2023-02-28T03:30:59;2.40;99.90
21199;DHT22;10757;51.038;3.712;2023-02-28T03:33:39;2.50;99.90
21199;DHT22;10757;51.038;3.712;2023-02-28T03:36:18;2.80;99.90
21199;DHT22;10757;51.038;3.712;2023-02-28T03:39:02;3.00;99.90
21199;DHT22;10757;51.038;3.712;2023-02-28T03:42:03;2.90;99.90
21199;DHT22;10757;51.038;3.712;2023-02-28T03:44:39;3.20;99.90
21199;DHT22;10757;51.038;3.712;2023-02-28T03:47:16;3.00;99.90
21199;DHT22;10757;51.038;3.712;2023-02-28T03:50:02;3.10;99.90
21199;DHT22;10757;51.038;3.712;2023-02-28T03:52:34;3.10;99.90
21199;DHT22;10757;51.038;3.712;2023-02-28T03:55:03;3.00;99.90
21199;DHT22;10757;51.038;3.712;2023-02-28T04:00:34;2.90;99.90
21199;DHT22;10757;51.038;3.712;2023-02-28T04:03:02;2.80;99.90
21199;DHT22;10757;51.038;3.712;2023-02-28T04:05:28;3.00;99.90
21199;DHT22;10757;51.038;3.712;2023-02-28T04:08:05;3.00;99.90
21199;DHT22;10757;51.038;3.712;2023-02-28T04:10:31;3.00;99.90
21199;DHT22;10757;51.038;3.712;2023-02-28T04:12:57;3.00;99.90
21199;DHT22;10757;51.038;3.712;2023-02-28T04:15:23;3.20;99.90
21199;DHT22;10757;51.038;3.712;2023-02-28T04:17:50;3.20;99.90
21199;DHT22;10757;51.038;3.712;2023-02-28T04:20:16;3.10;99.90
21199;DHT22;10757;51.038;3.712;2023-02-28T04:22:42;3.10;99.90
21199;DHT22;10757;51.038;3.712;2023-02-28T04:25:08;3.20;99.90
21199;DHT22;10757;51.038;3.712;2023-02-28T04:27:34;3.30;99.90
21199;DHT22;10757;51.038;3.712;2023-02-28T04:30:00;3.30;99.90
21199;DHT22;10757;51.038;3.712;2023-02-28T04:32:25;3.40;99.90
21199;DHT22;10757;51.038;3.712;2023-02-28T04:34:51;3.50;99.90
21199;DHT22;10757;51.038;3.712;2023-02-28T04:37:17;3.50;99.90
21199;DHT22;10757;51.038;3.712;2023-02-28T04:39:43;3.60;99.90
21199;DHT22;10757;51.038;3.712;2023-02-28T04:42:09;3.60;99.90
21199;DHT22;10757;51.038;3.712;2023-02-28T04:44:35;3.60;99.90
21199;DHT22;10757;51.038;3.712;2023-02-28T04:47:01;3.50;99.90
21199;DHT22;10757;51.038;3.712;2023-02-28T04:49:27;3.60;99.90
21199;DHT22;10757;51.038;3.712;2023-02-28T04:51:53;3.70;99.90
21199;DHT22;10757;51.038;3.712;2023-02-28T04:54:18;3.70;99.90
21199;DHT22;10757;51.038;3.712;2023-02-28T04:56:44;3.80;99.90
21199;DHT22;10757;51.038;3.712;2023-02-28T04:59:10;4.10;99.90
21199;DHT22;10757;51.038;3.712;2023-02-28T05:01:36;4.30;99.90
21199;DHT22;10757;51.038;3.712;2023-02-28T05:04:03;4.40;99.90
21199;DHT22;10757;51.038;3.712;2023-02-28T05:06:32;4.30;99.90
21199;DHT22;10757;51.038;3.712;2023-02-28T05:08:58;4.10;99.90
21199;DHT22;10757;51.038;3.712;2023-02-28T05:11:27;4.10;99.90
21199;DHT22;10757;51.038;3.712;2023-02-28T05:13:55;3.90;99.90
21199;DHT22;10757;51.038;3.712;2023-02-28T05:16:21;4.10;99.90
21199;DHT22;10757;51.038;3.712;2023-02-28T05:18:47;4.20;99.90
21199;DHT22;10757;51.038;3.712;2023-02-28T05:21:28;4.10;99.90
21199;DHT22;10757;51.038;3.712;2023-02-28T05:23:57;3.90;99.90
21199;DHT22;10757;51.038;3.712;2023-02-28T05:26:24;3.80;99.90
21199;DHT22;10757;51.038;3.712;2023-02-28T05:28:50;3.70;99.90
21199;DHT22;10757;51.038;3.712;2023-02-28T05:31:15;3.80;99.90
21199;DHT22;10757;51.038;3.712;2023-02-28T05:33:41;3.90;99.90
21199;DHT22;10757;51.038;3.712;2023-02-28T05:36:07;3.90;99.90
21199;DHT22;10757;51.038;3.712;2023-02-28T05:38:33;4.20;99.90
21199;DHT22;10757;51.038;3.712;2023-02-28T05:40:59;4.40;99.90
21199;DHT22;10757;51.038;3.712;2023-02-28T05:43:25;4.20;99.90
21199;DHT22;10757;51.038;3.712;2023-02-28T05:45:51;4.00;99.90
21199;DHT22;10757;51.038;3.712;2023-02-28T05:48:16;4.00;99.90
21199;DHT22;10757;51.038;3.712;2023-02-28T05:50:43;4.10;99.90
21199;DHT22;10757;51.038;3.712;2023-02-28T05:53:11;4.00;99.90
21199;DHT22;10757;51.038;3.712;2023-02-28T05:55:37;3.90;99.90
21199;DHT22;10757;51.038;3.712;2023-02-28T05:58:03;4.30;99.90
21199;DHT22;10757;51.038;3.712;2023-02-28T06:00:29;4.30;99.90
21199;DHT22;10757;51.038;3.712;2023-02-28T06:02:55;4.50;99.90
21199;DHT22;10757;51.038;3.712;2023-02-28T06:05:23;4.70;99.90
21199;DHT22;10757;51.038;3.712;2023-02-28T06:07:49;4.90;99.90
21199;DHT22;10757;51.038;3.712;2023-02-28T06:10:15;4.70;99.90
21199;DHT22;10757;51.038;3.712;2023-02-28T06:12:41;4.40;99.90
21199;DHT22;10757;51.038;3.712;2023-02-28T06:15:11;4.40;99.90
21199;DHT22;10757;51.038;3.712;2023-02-28T06:17:37;4.10;99.90
21199;DHT22;10757;51.038;3.712;2023-02-28T06:20:04;4.10;99.90
21199;DHT22;10757;51.038;3.712;2023-02-28T06:22:30;4.00;99.90
21199;DHT22;10757;51.038;3.712;2023-02-28T06:24:56;4.00;99.90
21199;DHT22;10757;51.038;3.712;2023-02-28T06:27:23;4.00;99.90
21199;DHT22;10757;51.038;3.712;2023-02-28T06:29:49;4.00;99.90
21199;DHT22;10757;51.038;3.712;2023-02-28T06:32:18;4.10;99.90
21199;DHT22;10757;51.038;3.712;2023-02-28T06:34:45;4.10;99.90
21199;DHT22;10757;51.038;3.712;2023-02-28T06:37:11;4.40;99.90
21199;DHT22;10757;51.038;3.712;2023-02-28T06:39:36;4.60;99.90
21199;DHT22;10757;51.038;3.712;2023-02-28T06:42:03;4.80;99.90
21199;DHT22;10757;51.038;3.712;2023-02-28T06:44:29;4.40;99.90
21199;DHT22;10757;51.038;3.712;2023-02-28T06:47:02;4.30;99.90
21199;DHT22;10757;51.038;3.712;2023-02-28T06:49:30;4.20;99.90
21199;DHT22;10757;51.038;3.712;2023-02-28T06:51:56;4.10;99.90
21199;DHT22;10757;51.038;3.712;2023-02-28T06:54:22;4.40;99.90
21199;DHT22;10757;51.038;3.712;2023-02-28T06:56:47;4.40;99.90
21199;DHT22;10757;51.038;3.712;2023-02-28T06:59:14;4.40;99.90
21199;DHT22;10757;51.038;3.712;2023-02-28T07:01:40;4.50;99.90
21199;DHT22;10757;51.038;3.712;2023-02-28T07:04:06;4.40;99.90
21199;DHT22;10757;51.038;3.712;2023-02-28T07:06:32;4.40;99.90
21199;DHT22;10757;51.038;3.712;2023-02-28T07:08:58;4.40;99.90
21199;DHT22;10757;51.038;3.712;2023-02-28T07:11:26;4.30;99.90
21199;DHT22;10757;51.038;3.712;2023-02-28T07:13:56;4.30;99.90
21199;DHT22;10757;51.038;3.712;2023-02-28T07:16:23;4.40;99.90
21199;DHT22;10757;51.038;3.712;2023-02-28T07:18:49;4.40;99.90
21199;DHT22;10757;51.038;3.712;2023-02-28T07:21:17;4.50;99.90
21199;DHT22;10757;51.038;3.712;2023-02-28T07:23:43;4.50;99.90
21199;DHT22;10757;51.038;3.712;2023-02-28T07:26:14;4.40;99.90
21199;DHT22;10757;51.038;3.712;2023-02-28T07:28:42;4.50;99.90
21199;DHT22;10757;51.038;3.712;2023-02-28T07:31:08;4.50;99.90
21199;DHT22;10757;51.038;3.712;2023-02-28T07:33:36;4.50;99.90
21199;DHT22;10757;51.038;3.712;2023-02-28T07:36:03;4.40;99.90
21199;DHT22;10757;51.038;3.712;2023-02-28T07:38:30;4.40;99.90
21199;DHT22;10757;51.038;3.712;2023-02-28T07:40:55;4.50;99.90
21199;DHT22;10757;51.038;3.712;2023-02-28T07:43:21;4.60;99.90
21199;DHT22;10757;51.038;3.712;2023-02-28T07:45:47;4.50;99.90
21199;DHT22;10757;51.038;3.712;2023-02-28T07:48:12;4.60;99.90
21199;DHT22;10757;51.038;3.712;2023-02-28T07:50:38;4.70;99.90
21199;DHT22;10757;51.038;3.712;2023-02-28T07:53:04;4.70;99.90
21199;DHT22;10757;51.038;3.712;2023-02-28T07:55:30;4.70;99.90
21199;DHT22;10757;51.038;3.712;2023-02-28T07:58:00;4.80;99.90
21199;DHT22;10757;51.038;3.712;2023-02-28T08:00:26;4.70;99.90
21199;DHT22;10757;51.038;3.712;2023-02-28T08:02:51;4.80;99.90
21199;DHT22;10757;51.038;3.712;2023-02-28T08:05:19;4.80;99.90
21199;DHT22;10757;51.038;3.712;2023-02-28T08:07:46;5.00;99.90
21199;DHT22;10757;51.038;3.712;2023-02-28T08:10:12;4.90;99.90
21199;DHT22;10757;51.038;3.712;2023-02-28T08:12:38;5.00;99.90
21199;DHT22;10757;51.038;3.712;2023-02-28T08:15:04;5.00;99.90
21199;DHT22;10757;51.038;3.712;2023-02-28T08:17:31;5.40;99.90
21199;DHT22;10757;51.038;3.712;2023-02-28T08:19:57;5.20;99.90
21199;DHT22;10757;51.038;3.712;2023-02-28T08:22:23;5.40;99.90
21199;DHT22;10757;51.038;3.712;2023-02-28T08:24:48;5.40;99.90
21199;DHT22;10757;51.038;3.712;2023-02-28T08:27:14;5.50;99.90
21199;DHT22;10757;51.038;3.712;2023-02-28T08:29:40;5.40;99.90
21199;DHT22;10757;51.038;3.712;2023-02-28T08:32:07;5.40;99.90
21199;DHT22;10757;51.038;3.712;2023-02-28T08:34:33;5.30;99.90
21199;DHT22;10757;51.038;3.712;2023-02-28T08:37:00;5.40;99.90
21199;DHT22;10757;51.038;3.712;2023-02-28T08:39:26;5.30;99.90
21199;DHT22;10757;51.038;3.712;2023-02-28T08:41:52;5.20;99.90
21199;DHT22;10757;51.038;3.712;2023-02-28T08:44:19;5.40;99.90
21199;DHT22;10757;51.038;3.712;2023-02-28T08:46:44;5.40;99.90
21199;DHT22;10757;51.038;3.712;2023-02-28T08:49:10;5.30;99.90
21199;DHT22;10757;51.038;3.712;2023-02-28T08:51:37;5.20;99.90
21199;DHT22;10757;51.038;3.712;2023-02-28T08:54:03;5.20;99.90
21199;DHT22;10757;51.038;3.712;2023-02-28T08:56:30;5.30;99.90
21199;DHT22;10757;51.038;3.712;2023-02-28T08:58:57;5.20;99.90
21199;DHT22;10757;51.038;3.712;2023-02-28T09:01:28;5.30;99.90
21199;DHT22;10757;51.038;3.712;2023-02-28T09:03:55;5.30;99.90
21199;DHT22;10757;51.038;3.712;2023-02-28T09:06:24;5.40;99.90
21199;DHT22;10757;51.038;3.712;2023-02-28T09:08:51;5.30;99.90
21199;DHT22;10757;51.038;3.712;2023-02-28T09:11:17;5.30;99.90
21199;DHT22;10757;51.038;3.712;2023-02-28T09:13:45;5.20;99.90
21199;DHT22;10757;51.038;3.712;2023-02-28T09:16:13;5.30;99.90
21199;DHT22;10757;51.038;3.712;2023-02-28T09:18:40;5.40;99.90
21199;DHT22;10757;51.038;3.712;2023-02-28T09:21:14;5.40;99.90
21199;DHT22;10757;51.038;3.712;2023-02-28T09:23:41;5.40;99.90
21199;DHT22;10757;51.038;3.712;2023-02-28T09:26:08;5.40;99.90
21199;DHT22;10757;51.038;3.712;2023-02-28T09:28:38;5.40;99.90
21199;DHT22;10757;51.038;3.712;2023-02-28T09:31:04;5.40;99.90
21199;DHT22;10757;51.038;3.712;2023-02-28T09:33:30;5.50;99.90
21199;DHT22;10757;51.038;3.712;2023-02-28T09:36:01;5.50;99.90
21199;DHT22;10757;51.038;3.712;2023-02-28T09:38:27;5.40;99.90
21199;DHT22;10757;51.038;3.712;2023-02-28T09:40:57;5.50;99.90
21199;DHT22;10757;51.038;3.712;2023-02-28T09:43:33;5.40;99.90
21199;DHT22;10757;51.038;3.712;2023-02-28T09:49:04;5.40;99.90
21199;DHT22;10757;51.038;3.712;2023-02-28T09:53:58;5.20;99.90
21199;DHT22;10757;51.038;3.712;2023-02-28T09:56:30;5.20;99.90
21199;DHT22;10757;51.038;3.712;2023-02-28T09:59:02;5.40;99.90
21199;DHT22;10757;51.038;3.712;2023-02-28T10:04:41;5.70;99.90
21199;DHT22;10757;51.038;3.712;2023-02-28T10:10:24;5.80;99.90
21199;DHT22;10757;51.038;3.712;2023-02-28T10:12:55;5.80;99.90
21199;DHT22;10757;51.038;3.712;2023-02-28T10:15:23;5.80;99.90
21199;DHT22;10757;51.038;3.712;2023-02-28T10:17:54;5.70;99.90
21199;DHT22;10757;51.038;3.712;2023-02-28T10:20:23;5.80;99.90
21199;DHT22;10757;51.038;3.712;2023-02-28T10:25:37;5.70;99.90
21199;DHT22;10757;51.038;3.712;2023-02-28T10:28:16;5.70;99.90
21199;DHT22;10757;51.038;3.712;2023-02-28T10:30:49;5.90;99.90
21199;DHT22;10757;51.038;3.712;2023-02-28T10:33:31;6.20;99.90
21199;DHT22;10757;51.038;3.712;2023-02-28T10:35:58;6.30;99.90
21199;DHT22;10757;51.038;3.712;2023-02-28T10:38:26;6.20;99.90
21199;DHT22;10757;51.038;3.712;2023-02-28T10:41:10;6.20;99.90
21199;DHT22;10757;51.038;3.712;2023-02-28T10:43:39;6.20;99.90
21199;DHT22;10757;51.038;3.712;2023-02-28T10:51:13;6.70;99.90
21199;DHT22;10757;51.038;3.712;2023-02-28T10:53:50;6.80;99.90
21199;DHT22;10757;51.038;3.712;2023-02-28T10:56:19;6.80;99.90
21199;DHT22;10757;51.038;3.712;2023-02-28T11:01:45;7.00;99.90
21199;DHT22;10757;51.038;3.712;2023-02-28T11:09:40;7.60;99.90
21199;DHT22;10757;51.038;3.712;2023-02-28T11:12:22;7.30;99.90
21199;DHT22;10757;51.038;3.712;2023-02-28T11:15:02;7.10;99.90
21199;DHT22;10757;51.038;3.712;2023-02-28T11:17:30;6.80;99.90
21199;DHT22;10757;51.038;3.712;2023-02-28T11:20:04;6.60;99.90
21199;DHT22;10757;51.038;3.712;2023-02-28T11:22:37;6.50;99.90
21199;DHT22;10757;51.038;3.712;2023-02-28T11:25:13;6.40;99.90
21199;DHT22;10757;51.038;3.712;2023-02-28T11:27:51;6.60;99.90
21199;DHT22;10757;51.038;3.712;2023-02-28T11:30:41;6.80;99.90
21199;DHT22;10757;51.038;3.712;2023-02-28T11:33:40;6.90;99.90
21199;DHT22;10757;51.038;3.712;2023-02-28T11:36:16;7.20;99.90
21199;DHT22;10757;51.038;3.712;2023-02-28T11:38:43;7.30;99.90
21199;DHT22;10757;51.038;3.712;2023-02-28T11:41:49;7.20;99.90
21199;DHT22;10757;51.038;3.712;2023-02-28T11:47:09;7.40;99.90
21199;DHT22;10757;51.038;3.712;2023-02-28T11:52:53;7.40;99.90
21199;DHT22;10757;51.038;3.712;2023-02-28T11:55:39;7.40;99.90
21199;DHT22;10757;51.038;3.712;2023-02-28T11:58:42;7.40;99.90
21199;DHT22;10757;51.038;3.712;2023-02-28T12:01:38;7.30;99.90
21199;DHT22;10757;51.038;3.712;2023-02-28T12:13:47;6.70;99.90
21199;DHT22;10757;51.038;3.712;2023-02-28T12:16:34;6.90;99.90
21199;DHT22;10757;51.038;3.712;2023-02-28T12:19:19;7.10;99.90
21199;DHT22;10757;51.038;3.712;2023-02-28T12:27:38;7.30;99.90
21199;DHT22;10757;51.038;3.712;2023-02-28T12:30:30;7.30;99.90
21199;DHT22;10757;51.038;3.712;2023-02-28T12:33:14;7.40;99.90
21199;DHT22;10757;51.038;3.712;2023-02-28T12:35:51;7.40;99.90
21199;DHT22;10757;51.038;3.712;2023-02-28T12:38:19;7.40;99.90
21199;DHT22;10757;51.038;3.712;2023-02-28T12:41:05;7.30;99.90
21199;DHT22;10757;51.038;3.712;2023-02-28T12:43:40;7.40;99.90
21199;DHT22;10757;51.038;3.712;2023-02-28T12:46:21;7.30;99.90
21199;DHT22;10757;51.038;3.712;2023-02-28T12:48:52;7.00;99.90
21199;DHT22;10757;51.038;3.712;2023-02-28T12:51:21;6.80;99.90
21199;DHT22;10757;51.038;3.712;2023-02-28T13:05:29;7.10;99.90
21199;DHT22;10757;51.038;3.712;2023-02-28T13:08:27;7.20;99.90
21199;DHT22;10757;51.038;3.712;2023-02-28T13:10:57;7.20;98.70
21199;DHT22;10757;51.038;3.712;2023-02-28T13:13:25;7.00;98.80
21199;DHT22;10757;51.038;3.712;2023-02-28T13:16:10;7.00;98.70
21199;DHT22;10757;51.038;3.712;2023-02-28T13:18:45;7.10;98.90
21199;DHT22;10757;51.038;3.712;2023-02-28T13:21:28;7.10;99.20
21199;DHT22;10757;51.038;3.712;2023-02-28T13:31:32;7.00;97.00
21199;DHT22;10757;51.038;3.712;2023-02-28T13:34:13;6.90;97.90
21199;DHT22;10757;51.038;3.712;2023-02-28T13:36:39;7.00;97.90
21199;DHT22;10757;51.038;3.712;2023-02-28T13:39:51;7.00;97.30
21199;DHT22;10757;51.038;3.712;2023-02-28T13:42:34;7.00;98.10
21199;DHT22;10757;51.038;3.712;2023-02-28T13:56:03;6.90;96.90
21199;DHT22;10757;51.038;3.712;2023-02-28T13:59:06;7.00;97.50
21199;DHT22;10757;51.038;3.712;2023-02-28T14:07:08;7.10;96.50
21199;DHT22;10757;51.038;3.712;2023-02-28T14:09:56;7.00;96.80
21199;DHT22;10757;51.038;3.712;2023-02-28T14:15:46;6.80;97.20
21199;DHT22;10757;51.038;3.712;2023-02-28T14:20:53;7.00;96.40
21199;DHT22;10757;51.038;3.712;2023-02-28T14:32:47;7.00;97.70
21199;DHT22;10757;51.038;3.712;2023-02-28T14:35:53;7.10;97.10
21199;DHT22;10757;51.038;3.712;2023-02-28T14:38:43;7.00;96.60
21199;DHT22;10757;51.038;3.712;2023-02-28T14:41:35;7.10;97.50
21199;DHT22;10757;51.038;3.712;2023-02-28T14:44:27;7.20;97.60
21199;DHT22;10757;51.038;3.712;2023-02-28T14:47:01;7.30;97.20
21199;DHT22;10757;51.038;3.712;2023-02-28T14:49:44;7.20;96.30
21199;DHT22;10757;51.038;3.712;2023-02-28T14:52:24;7.10;97.10
21199;DHT22;10757;51.038;3.712;2023-02-28T14:55:14;6.90;96.80
21199;DHT22;10757;51.038;3.712;2023-02-28T14:57:54;7.00;97.20
21199;DHT22;10757;51.038;3.712;2023-02-28T15:00:47;7.00;97.20
21199;DHT22;10757;51.038;3.712;2023-02-28T15:03:29;7.00;97.30
21199;DHT22;10757;51.038;3.712;2023-02-28T15:06:04;6.90;97.60
21199;DHT22;10757;51.038;3.712;2023-02-28T15:08:31;7.00;97.40
21199;DHT22;10757;51.038;3.712;2023-02-28T15:11:18;7.00;97.00
21199;DHT22;10757;51.038;3.712;2023-02-28T15:13:54;6.90;97.00
21199;DHT22;10757;51.038;3.712;2023-02-28T15:16:36;6.80;97.50
21199;DHT22;10757;51.038;3.712;2023-02-28T15:19:16;6.80;98.10
21199;DHT22;10757;51.038;3.712;2023-02-28T15:22:07;7.00;98.00
21199;DHT22;10757;51.038;3.712;2023-02-28T15:27:30;6.70;97.80
21199;DHT22;10757;51.038;3.712;2023-02-28T15:30:11;6.60;98.10
21199;DHT22;10757;51.038;3.712;2023-02-28T15:32:39;6.60;98.30
21199;DHT22;10757;51.038;3.712;2023-02-28T15:37:56;6.40;98.80
21199;DHT22;10757;51.038;3.712;2023-02-28T15:40:43;6.50;99.30
21199;DHT22;10757;51.038;3.712;2023-02-28T15:46:02;6.80;98.60
21199;DHT22;10757;51.038;3.712;2023-02-28T15:48:42;6.90;99.20
21199;DHT22;10757;51.038;3.712;2023-02-28T15:56:35;6.80;98.80
21199;DHT22;10757;51.038;3.712;2023-02-28T15:59:07;6.70;99.40
21199;DHT22;10757;51.038;3.712;2023-02-28T16:01:38;6.70;99.60
21199;DHT22;10757;51.038;3.712;2023-02-28T16:04:16;6.80;99.70
21199;DHT22;10757;51.038;3.712;2023-02-28T16:09:25;6.80;99.30
21199;DHT22;10757;51.038;3.712;2023-02-28T16:11:54;6.70;99.60
21199;DHT22;10757;51.038;3.712;2023-02-28T16:14:23;6.70;99.50
21199;DHT22;10757;51.038;3.712;2023-02-28T16:16:54;6.60;99.70
21199;DHT22;10757;51.038;3.712;2023-02-28T16:19:21;6.60;99.90
21199;DHT22;10757;51.038;3.712;2023-02-28T16:21:47;6.60;99.90
21199;DHT22;10757;51.038;3.712;2023-02-28T16:24:13;6.60;99.90
21199;DHT22;10757;51.038;3.712;2023-02-28T16:26:40;6.60;99.90
21199;DHT22;10757;51.038;3.712;2023-02-28T16:29:08;6.60;99.90
21199;DHT22;10757;51.038;3.712;2023-02-28T16:31:37;6.50;99.90
21199;DHT22;10757;51.038;3.712;2023-02-28T16:34:04;6.50;99.90
21199;DHT22;10757;51.038;3.712;2023-02-28T16:36:30;6.50;99.90
21199;DHT22;10757;51.038;3.712;2023-02-28T16:38:56;6.60;99.90
21199;DHT22;10757;51.038;3.712;2023-02-28T16:41:34;6.60;99.90
21199;DHT22;10757;51.038;3.712;2023-02-28T16:44:00;6.40;99.90
21199;DHT22;10757;51.038;3.712;2023-02-28T16:46:34;6.50;99.90
21199;DHT22;10757;51.038;3.712;2023-02-28T16:49:03;6.50;99.90
21199;DHT22;10757;51.038;3.712;2023-02-28T16:51:29;6.40;99.90
21199;DHT22;10757;51.038;3.712;2023-02-28T16:53:58;6.40;99.90
21199;DHT22;10757;51.038;3.712;2023-02-28T16:56:24;6.30;99.90
21199;DHT22;10757;51.038;3.712;2023-02-28T16:58:51;6.30;99.90
21199;DHT22;10757;51.038;3.712;2023-02-28T17:01:18;6.30;99.90
21199;DHT22;10757;51.038;3.712;2023-02-28T17:03:50;6.40;99.90
21199;DHT22;10757;51.038;3.712;2023-02-28T17:06:26;6.40;99.90
21199;DHT22;10757;51.038;3.712;2023-02-28T17:08:59;6.40;99.90
21199;DHT22;10757;51.038;3.712;2023-02-28T17:11:25;6.40;99.90
21199;DHT22;10757;51.038;3.712;2023-02-28T17:13:52;6.30;99.90
21199;DHT22;10757;51.038;3.712;2023-02-28T17:16:32;6.30;99.90
21199;DHT22;10757;51.038;3.712;2023-02-28T17:19:01;6.30;99.90
21199;DHT22;10757;51.038;3.712;2023-02-28T17:21:28;6.20;99.90
21199;DHT22;10757;51.038;3.712;2023-02-28T17:23:54;6.30;99.90
21199;DHT22;10757;51.038;3.712;2023-02-28T17:26:21;6.30;99.90
21199;DHT22;10757;51.038;3.712;2023-02-28T17:28:48;6.20;99.90
21199;DHT22;10757;51.038;3.712;2023-02-28T17:31:15;6.10;99.90
21199;DHT22;10757;51.038;3.712;2023-02-28T17:33:41;6.00;99.90
21199;DHT22;10757;51.038;3.712;2023-02-28T17:36:14;6.20;99.90
21199;DHT22;10757;51.038;3.712;2023-02-28T17:38:40;6.00;99.90
21199;DHT22;10757;51.038;3.712;2023-02-28T17:41:07;6.00;99.90
21199;DHT22;10757;51.038;3.712;2023-02-28T17:43:34;6.00;99.90
21199;DHT22;10757;51.038;3.712;2023-02-28T17:46:00;6.00;99.90
21199;DHT22;10757;51.038;3.712;2023-02-28T17:48:26;5.90;99.90
21199;DHT22;10757;51.038;3.712;2023-02-28T17:50:52;5.90;99.90
21199;DHT22;10757;51.038;3.712;2023-02-28T17:53:17;5.90;99.90
21199;DHT22;10757;51.038;3.712;2023-02-28T17:55:43;5.90;99.90
21199;DHT22;10757;51.038;3.712;2023-02-28T17:58:10;5.80;99.90
21199;DHT22;10757;51.038;3.712;2023-02-28T18:00:39;5.70;99.90
21199;DHT22;10757;51.038;3.712;2023-02-28T18:03:05;5.70;99.90
21199;DHT22;10757;51.038;3.712;2023-02-28T18:05:31;5.60;99.90
21199;DHT22;10757;51.038;3.712;2023-02-28T18:07:57;5.80;99.90
21199;DHT22;10757;51.038;3.712;2023-02-28T18:10:24;5.60;99.90
21199;DHT22;10757;51.038;3.712;2023-02-28T18:12:51;5.50;99.90
21199;DHT22;10757;51.038;3.712;2023-02-28T18:15:19;5.40;99.90
21199;DHT22;10757;51.038;3.712;2023-02-28T18:17:48;5.20;99.90
21199;DHT22;10757;51.038;3.712;2023-02-28T18:20:14;5.10;99.90
21199;DHT22;10757;51.038;3.712;2023-02-28T18:22:41;5.00;99.90
21199;DHT22;10757;51.038;3.712;2023-02-28T18:25:09;5.10;99.90
21199;DHT22;10757;51.038;3.712;2023-02-28T18:27:39;5.20;99.90
21199;DHT22;10757;51.038;3.712;2023-02-28T18:30:05;5.20;99.90
21199;DHT22;10757;51.038;3.712;2023-02-28T18:32:30;5.10;99.90
21199;DHT22;10757;51.038;3.712;2023-02-28T18:34:56;5.10;99.90
21199;DHT22;10757;51.038;3.712;2023-02-28T18:37:22;5.00;99.90
21199;DHT22;10757;51.038;3.712;2023-02-28T18:39:47;5.00;99.90
21199;DHT22;10757;51.038;3.712;2023-02-28T18:42:13;4.80;99.90